createdAt,value
2023-05-22T00:02:16.864Z,6.43
2023-05-22T00:05:05.702Z,6.60
2023-05-22T00:07:54.053Z,5.80
2023-05-22T00:10:41.864Z,6.43
2023-05-22T00:13:29.663Z,5.97
2023-05-22T00:16:19.490Z,7.67
2023-05-22T00:19:13.580Z,5.90
2023-05-22T00:22:02.027Z,7.07
2023-05-22T00:24:49.831Z,7.13
2023-05-22T00:27:37.551Z,6.87
2023-05-22T00:30:25.363Z,5.87
2023-05-22T00:33:14.970Z,6.57
2023-05-22T00:36:03.112Z,6.43
2023-05-22T00:38:50.894Z,5.87
2023-05-22T00:41:39.225Z,7.33
2023-05-22T00:44:27.564Z,5.90
2023-05-22T00:47:15.338Z,5.97
2023-05-22T00:50:06.162Z,6.50
2023-05-22T00:52:53.858Z,8.40
2023-05-22T00:55:41.851Z,7.33
2023-05-22T00:58:29.828Z,7.00
2023-05-22T01:01:18.374Z,5.90
2023-05-22T01:04:08.500Z,6.90
2023-05-22T01:06:58.238Z,7.33
2023-05-22T01:09:46.171Z,6.83
2023-05-22T01:12:40.691Z,8.77
2023-05-22T01:16:22.898Z,7.77
2023-05-22T01:23:57.968Z,7.57
2023-05-22T01:27:41.623Z,6.57
2023-05-22T01:30:51.950Z,7.00
2023-05-22T01:37:44.246Z,7.30
2023-05-22T01:44:35.099Z,9.73
2023-05-22T01:51:35.754Z,7.30
2023-05-22T01:55:04.116Z,9.33
2023-05-22T02:01:56.408Z,5.83
2023-05-22T02:08:49.539Z,7.77
2023-05-22T02:12:33.672Z,7.20
2023-05-22T02:15:23.554Z,7.07
2023-05-22T02:22:14.970Z,7.90
2023-05-22T02:29:07.316Z,9.20
2023-05-22T02:32:51.096Z,5.67
2023-05-22T02:35:40.585Z,6.77
2023-05-22T02:46:42.860Z,5.77
2023-05-22T02:53:34.070Z,5.53
2023-05-22T03:00:25.412Z,5.90
2023-05-22T03:07:17.617Z,5.33
2023-05-22T03:14:08.346Z,5.47
2023-05-22T03:20:59.322Z,6.67
2023-05-22T03:24:43.212Z,5.10
2023-05-22T03:27:34.180Z,5.03
2023-05-22T03:34:25.360Z,7.13
2023-05-22T03:41:14.679Z,5.97
2023-05-22T03:48:07.257Z,6.37
2023-05-22T03:51:51.632Z,5.10
2023-05-22T03:54:50.383Z,5.83
2023-05-22T04:01:41.578Z,6.93
2023-05-22T04:05:25.471Z,9.00
2023-05-22T04:08:16.521Z,5.50
2023-05-22T04:12:00.625Z,7.93
2023-05-22T04:18:50.244Z,6.20
2023-05-22T04:25:39.331Z,6.57
2023-05-22T04:32:30.061Z,5.43
2023-05-22T04:39:21.439Z,7.27
2023-05-22T04:46:14.091Z,5.50
2023-05-22T04:57:30.488Z,6.30
2023-05-22T05:04:22.673Z,7.77
2023-05-22T05:15:14.929Z,6.30
2023-05-22T05:18:05.742Z,6.57
2023-05-22T05:24:56.748Z,6.47
2023-05-22T05:31:46.334Z,4.90
2023-05-22T05:35:10.902Z,7.00
2023-05-22T05:38:35.163Z,5.37
2023-05-22T05:45:24.057Z,6.37
2023-05-22T05:52:27.557Z,4.43
2023-05-22T05:56:09.310Z,5.37
2023-05-22T05:59:52.554Z,6.07
2023-05-22T06:03:01.099Z,5.47
2023-05-22T06:06:43.282Z,5.83
2023-05-22T06:13:32.497Z,4.30
2023-05-22T06:17:16.433Z,6.70
2023-05-22T06:24:09.758Z,5.50
2023-05-22T06:27:29.836Z,4.67
2023-05-22T06:35:13.454Z,5.43
2023-05-22T06:46:02.954Z,4.80
2023-05-22T06:49:46.879Z,4.13
2023-05-22T06:52:37.131Z,7.60
2023-05-22T06:55:37.354Z,9.33
2023-05-22T06:59:19.818Z,5.77
2023-05-22T07:06:10.713Z,7.03
2023-05-22T07:17:01.461Z,4.97
2023-05-22T07:20:43.952Z,4.53
2023-05-22T07:27:33.360Z,3.67
2023-05-22T07:34:22.704Z,3.73
2023-05-22T07:37:14.870Z,2.87
2023-05-22T07:44:07.429Z,4.47
2023-05-22T07:47:44.311Z,3.73
2023-05-22T07:51:09.469Z,6.20
2023-05-22T07:54:52.001Z,3.23
2023-05-22T08:01:42.383Z,3.73
2023-05-22T08:04:59.995Z,3.10
2023-05-22T08:08:43.912Z,3.13
2023-05-22T08:11:34.377Z,4.57
2023-05-22T08:14:53.378Z,2.93
2023-05-22T08:21:42.500Z,5.40
2023-05-22T08:28:30.667Z,5.10
2023-05-22T08:31:34.706Z,4.57
2023-05-22T08:38:27.611Z,4.73
2023-05-22T08:53:40.688Z,2.90
2023-05-22T08:56:57.329Z,3.00
2023-05-22T09:00:28.568Z,3.17
2023-05-22T09:11:17.996Z,3.70
2023-05-22T09:18:08.331Z,3.27
2023-05-22T09:21:29.410Z,4.73
2023-05-22T09:28:20.946Z,4.97
2023-05-22T09:31:54.688Z,2.93
2023-05-22T09:34:54.782Z,5.10
2023-05-22T09:41:46.450Z,4.20
2023-05-22T09:52:37.415Z,3.47
2023-05-22T10:03:26.989Z,5.22
2023-05-22T10:10:19.954Z,3.22
2023-05-22T10:13:51.317Z,4.13
2023-05-22T10:20:39.795Z,3.17
2023-05-22T10:24:02.162Z,3.80
2023-05-22T10:31:00.388Z,2.72
2023-05-22T10:41:54.425Z,2.30
2023-05-22T10:45:08.421Z,2.67
2023-05-22T10:48:42.070Z,3.50
2023-05-22T10:51:46.149Z,3.65
2023-05-22T10:54:42.784Z,3.50
2023-05-22T10:57:56.449Z,2.33
2023-05-22T11:00:51.021Z,3.20
2023-05-22T11:04:19.693Z,2.50
2023-05-22T11:07:15.598Z,3.08
2023-05-22T11:10:03.274Z,3.65
2023-05-22T11:13:05.024Z,2.50
2023-05-22T11:15:53.828Z,2.80
2023-05-22T11:18:41.545Z,3.70
2023-05-22T11:21:31.810Z,2.58
2023-05-22T11:24:21.240Z,2.63
2023-05-22T11:27:09.612Z,3.17
2023-05-22T11:29:57.808Z,2.58
2023-05-22T11:32:48.377Z,3.40
2023-05-22T11:35:36.465Z,2.92
2023-05-22T11:38:25.419Z,2.45
2023-05-22T11:41:14.853Z,5.32
2023-05-22T11:44:03.234Z,2.28
2023-05-22T11:46:51.570Z,2.60
2023-05-22T11:49:39.881Z,4.10
2023-05-22T11:52:31.793Z,2.67
2023-05-22T11:55:19.789Z,3.30
2023-05-22T11:58:10.603Z,2.95
2023-05-22T12:01:01.587Z,2.90
2023-05-22T12:03:50.150Z,2.90
2023-05-22T12:06:38.007Z,4.35
2023-05-22T12:09:26.750Z,3.30
2023-05-22T12:12:15.157Z,3.28
2023-05-22T12:15:08.289Z,3.08
2023-05-22T12:17:57.839Z,2.65
2023-05-22T12:20:45.803Z,2.67
2023-05-22T12:23:34.491Z,3.53
2023-05-22T12:26:22.788Z,3.03
2023-05-22T12:29:11.394Z,2.90
2023-05-22T12:32:04.913Z,5.10
2023-05-22T12:34:53.272Z,3.28
2023-05-22T12:37:41.334Z,3.83
2023-05-22T12:40:29.015Z,2.92
2023-05-22T12:43:16.773Z,3.53
2023-05-22T12:46:04.442Z,2.90
2023-05-22T12:48:54.531Z,2.58
2023-05-22T12:51:42.462Z,2.97
2023-05-22T12:54:30.446Z,2.50
2023-05-22T12:57:18.342Z,4.53
2023-05-22T13:00:07.370Z,2.60
2023-05-22T13:02:55.649Z,2.70
2023-05-22T13:05:45.171Z,2.95
2023-05-22T13:08:32.856Z,4.88
2023-05-22T13:11:23.701Z,2.95
2023-05-22T13:14:11.454Z,6.55
2023-05-22T13:16:59.624Z,4.10
2023-05-22T13:19:47.548Z,2.97
2023-05-22T13:22:36.900Z,3.33
2023-05-22T13:25:25.002Z,2.55
2023-05-22T13:28:12.940Z,3.08
2023-05-22T13:31:01.419Z,3.13
2023-05-22T13:33:49.800Z,2.60
2023-05-22T13:36:38.149Z,5.75
2023-05-22T13:39:27.849Z,2.78
2023-05-22T13:42:16.247Z,4.13
2023-05-22T13:45:05.496Z,2.53
2023-05-22T13:47:53.306Z,2.65
2023-05-22T13:50:41.692Z,3.83
2023-05-22T13:53:29.965Z,3.33
2023-05-22T13:56:19.663Z,3.75
2023-05-22T13:59:09.361Z,5.03
2023-05-22T14:01:57.566Z,5.72
2023-05-22T14:04:48.293Z,2.92
2023-05-22T14:07:37.806Z,2.88
2023-05-22T14:10:26.498Z,3.45
2023-05-22T14:13:15.719Z,4.95
2023-05-22T14:16:03.591Z,2.80
2023-05-22T14:18:51.626Z,2.85
2023-05-22T14:21:39.918Z,3.42
2023-05-22T14:24:27.781Z,2.33
2023-05-22T14:27:16.270Z,4.07
2023-05-22T14:30:05.777Z,3.17
2023-05-22T14:32:53.633Z,3.05
2023-05-22T14:35:42.102Z,2.83
2023-05-22T14:38:34.776Z,3.83
2023-05-22T14:41:23.343Z,3.00
2023-05-22T14:44:11.524Z,2.80
2023-05-22T14:47:01.471Z,3.25
2023-05-22T14:49:49.251Z,5.10
2023-05-22T14:52:37.326Z,5.28
2023-05-22T14:55:28.617Z,4.82
2023-05-22T14:58:17.005Z,4.70
2023-05-22T15:01:04.525Z,6.70
2023-05-22T15:03:53.936Z,5.05
2023-05-22T15:06:42.201Z,3.50
2023-05-22T15:09:30.976Z,3.40
2023-05-22T15:12:19.682Z,4.63
2023-05-22T15:15:09.471Z,2.75
2023-05-22T15:17:58.161Z,3.03
2023-05-22T15:20:47.773Z,4.82
2023-05-22T15:23:36.230Z,3.30
2023-05-22T15:26:24.217Z,3.85
2023-05-22T15:29:13.121Z,6.93
2023-05-22T15:32:00.892Z,4.68
2023-05-22T15:34:49.455Z,2.63
2023-05-22T15:37:39.047Z,3.38
2023-05-22T15:40:27.153Z,2.92
2023-05-22T15:43:15.034Z,3.83
2023-05-22T15:46:03.442Z,3.58
2023-05-22T15:48:51.514Z,3.10
2023-05-22T15:51:39.950Z,2.78
2023-05-22T15:54:29.428Z,4.50
2023-05-22T15:57:17.387Z,5.72
2023-05-22T16:00:05.423Z,3.08
2023-05-22T16:02:53.240Z,3.60
2023-05-22T16:05:41.779Z,4.25
2023-05-22T16:08:30.345Z,3.90
2023-05-22T16:11:20.249Z,2.60
2023-05-22T16:14:08.612Z,2.88
2023-05-22T16:16:56.611Z,3.13
2023-05-22T16:19:44.948Z,3.55
2023-05-22T16:22:47.393Z,3.20
2023-05-22T16:25:36.632Z,6.22
2023-05-22T16:28:26.018Z,5.07
2023-05-22T16:31:18.337Z,5.47
2023-05-22T16:34:08.127Z,6.67
2023-05-22T16:36:55.854Z,6.45
2023-05-22T16:39:47.353Z,5.70
2023-05-22T16:42:36.248Z,7.97
2023-05-22T16:45:27.715Z,5.80
2023-05-22T16:48:34.236Z,6.17
2023-05-22T16:51:21.996Z,5.60
2023-05-22T16:54:10.030Z,6.30
2023-05-22T16:56:57.964Z,5.20
2023-05-22T16:59:46.645Z,4.70
2023-05-22T17:02:36.447Z,4.23
2023-05-22T17:05:25.061Z,7.20
2023-05-22T17:08:13.451Z,5.40
2023-05-22T17:11:01.573Z,4.57
2023-05-22T17:13:49.417Z,4.53
2023-05-22T17:16:38.162Z,7.30
2023-05-22T17:19:28.208Z,4.63
2023-05-22T17:22:16.655Z,4.60
2023-05-22T17:25:04.937Z,5.57
2023-05-22T17:27:52.429Z,10.00
2023-05-22T17:30:40.404Z,5.20
2023-05-22T17:33:28.796Z,7.27
2023-05-22T17:36:18.535Z,6.93
2023-05-22T17:39:06.689Z,7.93
2023-05-22T17:41:54.447Z,10.17
2023-05-22T17:44:42.552Z,9.13
2023-05-22T17:47:30.486Z,12.77
2023-05-22T17:50:18.955Z,16.73
2023-05-22T17:53:08.386Z,10.03
2023-05-22T17:55:56.793Z,9.90
2023-05-22T17:58:44.690Z,7.00
2023-05-22T18:01:32.764Z,4.67
2023-05-22T18:04:21.238Z,3.17
2023-05-22T18:07:09.220Z,4.17
2023-05-22T18:09:58.830Z,4.77
2023-05-22T18:12:47.809Z,7.17
2023-05-22T18:15:35.898Z,7.60
2023-05-22T18:18:24.165Z,3.40
2023-05-22T18:21:12.090Z,3.03
2023-05-22T18:24:05.129Z,3.87
2023-05-22T18:26:55.274Z,3.60
2023-05-22T18:29:43.918Z,3.37
2023-05-22T18:32:31.646Z,4.47
2023-05-22T18:35:20.012Z,4.63
2023-05-22T18:38:08.472Z,3.13
2023-05-22T18:40:56.797Z,4.63
2023-05-22T18:43:48.771Z,4.03
2023-05-22T18:46:37.165Z,2.93
2023-05-22T18:49:34.532Z,3.47
2023-05-22T18:52:22.508Z,3.40
2023-05-22T18:55:12.827Z,3.60
2023-05-22T18:58:00.868Z,3.97
2023-05-22T19:00:50.736Z,3.73
2023-05-22T19:03:38.682Z,3.43
2023-05-22T19:06:26.873Z,3.50
2023-05-22T19:09:14.582Z,5.00
2023-05-22T19:12:02.844Z,3.40
2023-05-22T19:14:51.235Z,4.37
2023-05-22T19:17:40.637Z,5.43
2023-05-22T19:20:29.208Z,3.90
2023-05-22T19:23:17.421Z,5.37
2023-05-22T19:26:05.744Z,4.40
2023-05-22T19:28:54.190Z,5.73
2023-05-22T19:31:42.676Z,5.40
2023-05-22T19:34:32.619Z,6.77
2023-05-22T19:37:21.152Z,8.97
2023-05-22T19:40:11.860Z,9.20
2023-05-22T19:42:59.888Z,10.13
2023-05-22T19:45:48.178Z,8.13
2023-05-22T19:48:36.772Z,7.77
2023-05-22T19:51:26.146Z,9.60
2023-05-22T19:54:14.058Z,8.90
2023-05-22T19:57:02.447Z,12.70
2023-05-22T19:59:50.685Z,9.47
2023-05-22T20:02:38.750Z,10.73
2023-05-22T20:05:27.215Z,14.40
2023-05-22T20:08:17.015Z,18.17
2023-05-22T20:11:05.080Z,18.07
2023-05-22T20:13:54.915Z,18.40
2023-05-22T20:16:49.176Z,15.77
2023-05-22T20:19:40.738Z,12.20
2023-05-22T20:22:32.115Z,10.30
2023-05-22T20:25:22.780Z,6.20
2023-05-22T20:28:12.160Z,6.67
2023-05-22T20:31:01.268Z,6.40
2023-05-22T20:33:50.510Z,7.50
2023-05-22T20:36:44.605Z,5.23
2023-05-22T20:39:34.512Z,5.47
2023-05-22T20:42:26.659Z,4.83
2023-05-22T20:45:16.452Z,5.63
2023-05-22T20:48:04.622Z,5.17
2023-05-22T20:50:52.706Z,6.20
2023-05-22T20:53:42.012Z,6.47
2023-05-22T20:56:37.980Z,6.23
2023-05-22T20:59:45.384Z,5.43
2023-05-22T21:02:39.619Z,4.67
2023-05-22T21:05:28.277Z,5.07
2023-05-22T21:08:21.256Z,5.07
2023-05-22T21:11:09.358Z,5.53
2023-05-22T21:13:57.950Z,4.70
2023-05-22T21:16:52.123Z,4.33
2023-05-22T21:19:39.795Z,5.40
2023-05-22T21:22:46.038Z,5.03
2023-05-22T21:25:41.142Z,5.00
2023-05-22T21:28:45.110Z,4.67
2023-05-22T21:32:10.099Z,4.40
2023-05-22T21:35:00.512Z,4.40
2023-05-22T21:37:50.087Z,4.70
2023-05-22T21:40:43.355Z,5.20
2023-05-22T21:43:32.773Z,6.93
2023-05-22T21:46:20.552Z,9.47
2023-05-22T21:49:10.818Z,7.30
2023-05-22T21:52:19.454Z,9.03
2023-05-22T21:55:10.654Z,9.23
2023-05-22T21:58:06.433Z,8.30
2023-05-22T22:00:59.895Z,9.47
2023-05-22T22:03:54.027Z,7.60
2023-05-22T22:06:57.013Z,6.97
2023-05-22T22:09:46.394Z,6.03
2023-05-22T22:12:54.285Z,6.63
2023-05-22T22:15:42.867Z,7.10
2023-05-22T22:18:41.095Z,5.20
2023-05-22T22:21:29.688Z,5.67
2023-05-22T22:28:24.502Z,6.07
2023-05-22T22:35:29.539Z,8.60
2023-05-22T22:39:26.465Z,9.97
2023-05-22T22:42:55.521Z,9.00
2023-05-22T22:46:33.639Z,9.80
2023-05-22T22:50:23.533Z,10.23
2023-05-22T22:54:12.540Z,8.87
2023-05-22T22:58:01.551Z,9.13
2023-05-22T23:04:57.674Z,8.73
2023-05-22T23:08:32.540Z,11.43
2023-05-22T23:12:01.581Z,13.93
2023-05-22T23:18:55.590Z,10.90
2023-05-22T23:22:44.561Z,11.83
2023-05-22T23:26:33.524Z,11.93
2023-05-22T23:30:22.506Z,9.67
2023-05-22T23:34:11.546Z,12.83
2023-05-22T23:38:00.536Z,12.40
2023-05-22T23:41:49.583Z,10.77
2023-05-22T23:45:38.690Z,10.57
2023-05-22T23:49:03.805Z,8.83
2023-05-22T23:52:47.934Z,11.53
2023-05-22T23:59:35.712Z,9.87
